Time;durP1;ratioP1;P1;durP2;ratioP2;P2;SDS_P1;SDS_P2;PMS_P1;PMS_P2;Temp;Humidity;BMP_temperature;BMP_pressure;BME280_temperature;BME280_humidity;BME280_pressure;Samples;Min_cycle;Max_cycle;Signal;HPM_P1;HPM_P2
2022/10/15 00:00:50;;;;;;;19.73;16.05;;;15.20;99.90;;;;;;5074449;28;20590;-70
2022/10/15 00:03:16;;;;;;;22.40;16.13;;;15.20;99.90;;;;;;5074509;28;20032;-71
2022/10/15 00:05:42;;;;;;;20.60;15.73;;;15.20;99.90;;;;;;5077252;28;20032;-70
2022/10/15 00:08:09;;;;;;;20.70;15.65;;;15.20;99.90;;;;;;5076672;28;20012;-70
2022/10/15 00:10:35;;;;;;;18.83;14.70;;;15.20;99.90;;;;;;5077308;28;20028;-71
2022/10/15 00:13:03;;;;;;;20.20;15.93;;;15.20;99.90;;;;;;5074060;28;20052;-71
2022/10/15 00:15:29;;;;;;;23.35;16.33;;;15.20;99.90;;;;;;5083574;28;20578;-70
2022/10/15 00:17:55;;;;;;;19.67;15.77;;;15.20;99.90;;;;;;5072749;28;20029;-71
2022/10/15 00:20:20;;;;;;;20.02;14.68;;;15.20;99.90;;;;;;5075949;28;20024;-71
2022/10/15 00:22:47;;;;;;;22.15;16.55;;;15.20;99.90;;;;;;5082424;28;20016;-71
2022/10/15 00:25:12;;;;;;;21.67;16.23;;;15.20;99.90;;;;;;5073562;28;20052;-71
2022/10/15 00:27:38;;;;;;;20.98;15.68;;;15.20;99.90;;;;;;5083786;28;20566;-71
2022/10/15 00:30:05;;;;;;;21.02;16.67;;;15.20;99.90;;;;;;5078689;28;20024;-71
2022/10/15 00:32:31;;;;;;;20.55;16.23;;;15.20;99.90;;;;;;5074163;28;20068;-71
2022/10/15 00:34:57;;;;;;;22.67;15.20;;;15.20;99.90;;;;;;5070806;28;20527;-70
2022/10/15 00:37:22;;;;;;;21.55;16.33;;;15.20;99.90;;;;;;5075732;28;20200;-70
2022/10/15 00:39:48;;;;;;;19.75;15.00;;;15.20;99.90;;;;;;5072940;28;20033;-70
2022/10/15 00:42:15;;;;;;;21.17;16.13;;;15.20;99.90;;;;;;5081386;28;20390;-71
2022/10/15 00:44:52;;;;;;;20.33;16.42;;;15.20;99.90;;;;;;5074436;28;20113;-70
2022/10/15 00:47:26;;;;;;;20.75;15.02;;;15.20;99.90;;;;;;5066176;28;20036;-70
2022/10/15 00:50:00;;;;;;;19.63;15.70;;;15.20;99.90;;;;;;5065638;28;20033;-70
2022/10/15 00:52:49;;;;;;;22.77;17.40;;;15.20;99.90;;;;;;5070635;28;20271;-69
2022/10/15 00:55:27;;;;;;;20.95;15.65;;;15.20;99.90;;;;;;5075863;28;20607;-71
2022/10/15 00:57:54;;;;;;;22.33;16.55;;;15.20;99.90;;;;;;5076827;28;20058;-71
2022/10/15 01:00:20;;;;;;;20.55;15.18;;;15.20;99.90;;;;;;5086254;28;20025;-70
2022/10/15 01:02:46;;;;;;;19.63;15.05;;;15.20;99.90;;;;;;5071868;28;20031;-70
2022/10/15 01:05:13;;;;;;;20.30;16.02;;;15.20;99.90;;;;;;5070605;28;20059;-70
2022/10/15 01:07:40;;;;;;;18.38;14.40;;;15.20;99.90;;;;;;5071385;28;20024;-70
2022/10/15 01:10:08;;;;;;;18.98;15.43;;;15.20;99.90;;;;;;5075078;28;20873;-71
2022/10/15 01:13:06;;;;;;;17.50;14.32;;;15.20;99.90;;;;;;5071173;28;20029;-70
2022/10/15 01:15:52;;;;;;;18.83;15.45;;;15.20;99.90;;;;;;5078775;28;20051;-71
2022/10/15 01:18:51;;;;;;;19.38;14.93;;;15.10;99.90;;;;;;5086333;28;20033;-71
2022/10/15 01:21:41;;;;;;;17.85;13.98;;;15.10;99.90;;;;;;5043109;28;20029;-70
2022/10/15 01:24:37;;;;;;;20.63;13.90;;;15.20;99.90;;;;;;5075613;28;20035;-70
2022/10/15 01:27:29;;;;;;;18.30;14.50;;;15.10;99.90;;;;;;5075704;28;20446;-69
2022/10/15 01:30:15;;;;;;;18.05;14.07;;;15.10;99.90;;;;;;5071301;28;20040;-70
2022/10/15 01:33:22;;;;;;;19.30;13.98;;;15.10;99.90;;;;;;5070367;28;20093;-70
2022/10/15 01:35:53;;;;;;;21.80;15.52;;;15.20;99.90;;;;;;5078015;28;20035;-70
2022/10/15 01:38:43;;;;;;;23.83;14.77;;;15.10;99.90;;;;;;5084206;28;20028;-70
2022/10/15 01:41:38;;;;;;;18.20;14.07;;;15.10;99.90;;;;;;5076540;28;20046;-70
2022/10/15 01:44:10;;;;;;;20.52;15.30;;;15.20;99.90;;;;;;5070116;28;20100;-70
2022/10/15 01:46:39;;;;;;;18.15;14.77;;;15.20;99.90;;;;;;5071634;28;20028;-70
2022/10/15 01:49:09;;;;;;;20.13;14.88;;;15.20;99.90;;;;;;5072346;28;20491;-70
2022/10/15 01:51:37;;;;;;;16.73;13.70;;;15.20;99.90;;;;;;5069068;28;20047;-71
2022/10/15 01:54:06;;;;;;;19.85;13.77;;;15.20;99.90;;;;;;5071838;28;20051;-71
2022/10/15 01:56:35;;;;;;;17.83;13.98;;;15.20;99.90;;;;;;5077452;28;20040;-71
2022/10/15 01:59:02;;;;;;;20.20;15.00;;;15.20;99.90;;;;;;5088761;28;20027;-71
2022/10/15 02:01:28;;;;;;;19.67;15.63;;;15.20;99.90;;;;;;5067098;28;20032;-71
2022/10/15 02:03:54;;;;;;;18.83;13.93;;;15.20;99.90;;;;;;5074120;28;20042;-71
2022/10/15 02:06:35;;;;;;;18.13;14.27;;;15.20;99.90;;;;;;5081887;28;20085;-71
2022/10/15 02:09:32;;;;;;;18.23;14.55;;;15.30;99.90;;;;;;5085255;28;20035;-71
2022/10/15 02:12:24;;;;;;;19.88;15.93;;;15.30;99.90;;;;;;5055756;28;20048;-71
2022/10/15 02:15:34;;;;;;;19.10;13.52;;;15.20;99.90;;;;;;5069582;28;20024;-70
2022/10/15 02:18:22;;;;;;;17.58;13.63;;;15.30;99.90;;;;;;5022579;28;20058;-70
2022/10/15 02:20:48;;;;;;;19.73;14.02;;;15.30;99.90;;;;;;5075731;28;20514;-69
2022/10/15 02:23:20;;;;;;;18.52;13.43;;;15.30;99.90;;;;;;5085333;28;20032;-69
2022/10/15 02:25:49;;;;;;;18.50;13.77;;;15.30;99.90;;;;;;5071390;28;20499;-69
2022/10/15 02:28:16;;;;;;;17.80;14.48;;;15.30;99.90;;;;;;5083920;28;20073;-69
2022/10/15 02:30:46;;;;;;;19.40;14.38;;;15.30;99.90;;;;;;5070602;28;20417;-69
2022/10/15 02:33:14;;;;;;;19.17;14.95;;;15.30;99.90;;;;;;5087594;28;20392;-69
2022/10/15 02:35:42;;;;;;;20.38;14.48;;;15.30;99.90;;;;;;5087865;28;20043;-70
2022/10/15 02:38:11;;;;;;;17.58;12.85;;;15.20;99.90;;;;;;5077103;28;20028;-70
2022/10/15 02:40:39;;;;;;;18.17;14.63;;;15.20;99.90;;;;;;5074357;28;20032;-70
2022/10/15 02:43:08;;;;;;;19.20;13.82;;;15.20;99.90;;;;;;5075191;28;20064;-70
2022/10/15 02:45:35;;;;;;;19.02;14.63;;;15.20;99.90;;;;;;5084607;28;20051;-70
2022/10/15 02:48:01;;;;;;;20.58;13.95;;;15.20;99.90;;;;;;5085849;28;20038;-70
2022/10/15 02:50:27;;;;;;;18.35;14.10;;;15.30;99.90;;;;;;5083193;28;20032;-70
2022/10/15 02:52:52;;;;;;;18.20;14.40;;;15.30;99.90;;;;;;5083591;28;20119;-71
2022/10/15 02:55:18;;;;;;;19.48;15.05;;;15.30;99.90;;;;;;5081074;28;20028;-70
2022/10/15 02:57:44;;;;;;;18.48;14.07;;;15.30;99.90;;;;;;5078304;28;20025;-70
2022/10/15 03:00:10;;;;;;;20.50;14.15;;;15.30;99.90;;;;;;5082441;28;20029;-70
2022/10/15 03:02:36;;;;;;;18.65;14.55;;;15.30;99.90;;;;;;5083195;28;20110;-70
2022/10/15 03:05:02;;;;;;;19.95;15.07;;;15.30;99.90;;;;;;5081447;28;20127;-70
2022/10/15 03:07:28;;;;;;;19.30;13.43;;;15.30;99.90;;;;;;5074828;28;20117;-70
2022/10/15 03:09:53;;;;;;;19.15;14.48;;;15.30;99.90;;;;;;5074487;28;20471;-70
2022/10/15 03:12:22;;;;;;;20.40;15.00;;;15.20;99.90;;;;;;5076995;28;20045;-70
2022/10/15 03:14:48;;;;;;;18.27;14.10;;;15.30;99.90;;;;;;5079498;28;20506;-70
2022/10/15 03:17:15;;;;;;;19.85;14.82;;;15.30;99.90;;;;;;5074661;28;20033;-70
2022/10/15 03:19:40;;;;;;;18.52;13.90;;;15.30;99.90;;;;;;5072413;28;20052;-70
2022/10/15 03:22:06;;;;;;;17.70;14.68;;;15.30;99.90;;;;;;5086221;28;20484;-70
2022/10/15 03:24:32;;;;;;;17.35;14.07;;;15.30;99.90;;;;;;5080906;28;20104;-70
2022/10/15 03:26:57;;;;;;;21.60;15.52;;;15.30;99.90;;;;;;5073050;28;20023;-70
2022/10/15 03:29:24;;;;;;;19.17;14.27;;;15.30;99.90;;;;;;5070661;28;20077;-70
2022/10/15 03:31:50;;;;;;;19.58;14.10;;;15.30;99.90;;;;;;5079933;28;20379;-71
2022/10/15 03:34:16;;;;;;;17.38;13.15;;;15.20;99.90;;;;;;5075770;28;20115;-70
2022/10/15 03:36:41;;;;;;;17.55;13.95;;;15.30;99.90;;;;;;5074146;28;20488;-70
2022/10/15 03:39:07;;;;;;;20.88;15.25;;;15.20;99.90;;;;;;5078317;28;20028;-70
2022/10/15 03:41:33;;;;;;;23.20;14.82;;;15.20;99.90;;;;;;5078311;28;20028;-70
2022/10/15 03:44:03;;;;;;;18.85;15.20;;;15.20;99.90;;;;;;5065656;28;20024;-70
2022/10/15 03:46:29;;;;;;;19.13;14.40;;;15.20;99.90;;;;;;5084534;28;20024;-70
2022/10/15 03:48:55;;;;;;;16.55;13.77;;;15.10;99.90;;;;;;5092103;28;20024;-69
2022/10/15 03:51:22;;;;;;;20.73;15.65;;;15.20;99.90;;;;;;5078570;28;20044;-70
2022/10/15 03:53:48;;;;;;;18.35;13.52;;;15.20;99.90;;;;;;5073126;28;20027;-69
2022/10/15 03:56:14;;;;;;;17.65;14.07;;;15.10;99.90;;;;;;5085945;28;20028;-70
2022/10/15 03:58:40;;;;;;;17.98;13.95;;;15.10;99.90;;;;;;5094090;28;20020;-69
2022/10/15 04:01:11;;;;;;;20.42;14.57;;;15.10;99.90;;;;;;5079810;28;20610;-69
2022/10/15 04:03:37;;;;;;;17.45;13.65;;;15.10;99.90;;;;;;5082398;28;20145;-70
2022/10/15 04:06:03;;;;;;;18.63;15.15;;;15.10;99.90;;;;;;5071825;28;20572;-69
2022/10/15 04:08:28;;;;;;;18.92;14.85;;;15.10;99.90;;;;;;5091568;28;20395;-69
2022/10/15 04:10:54;;;;;;;19.02;14.32;;;15.10;99.90;;;;;;5073568;28;20391;-69
2022/10/15 04:13:20;;;;;;;21.27;14.75;;;15.10;99.90;;;;;;5085014;28;20032;-69
2022/10/15 04:15:46;;;;;;;17.88;13.20;;;15.10;99.90;;;;;;5077427;28;20033;-69
2022/10/15 04:18:12;;;;;;;17.42;14.00;;;15.10;99.90;;;;;;5089862;28;20031;-69
2022/10/15 04:20:38;;;;;;;17.48;14.43;;;15.10;99.90;;;;;;5072123;28;20115;-70
2022/10/15 04:23:03;;;;;;;21.40;15.45;;;15.10;99.90;;;;;;5088209;28;20116;-69
2022/10/15 04:25:30;;;;;;;19.77;15.75;;;15.10;99.90;;;;;;5077143;28;20021;-69
2022/10/15 04:27:56;;;;;;;20.50;15.18;;;15.10;99.90;;;;;;5084571;28;20036;-70
2022/10/15 04:30:22;;;;;;;19.92;14.48;;;15.10;99.90;;;;;;5082046;28;20020;-70
2022/10/15 04:32:51;;;;;;;17.15;14.32;;;15.00;99.90;;;;;;5082392;28;20398;-70
2022/10/15 04:35:16;;;;;;;20.10;15.18;;;15.00;99.90;;;;;;5079598;28;20047;-69
2022/10/15 04:37:42;;;;;;;18.25;14.93;;;15.00;99.90;;;;;;5079868;28;20020;-70
2022/10/15 04:40:09;;;;;;;19.63;14.23;;;15.00;99.90;;;;;;5070803;28;20016;-69
2022/10/15 04:42:38;;;;;;;18.70;14.75;;;15.00;99.90;;;;;;5078662;28;20066;-70
2022/10/15 04:45:05;;;;;;;19.42;14.00;;;15.00;99.90;;;;;;5072137;28;20029;-70
2022/10/15 04:47:31;;;;;;;17.40;14.05;;;15.00;99.90;;;;;;5080775;28;20458;-70
2022/10/15 04:49:56;;;;;;;20.55;15.05;;;15.00;99.90;;;;;;5078182;28;20056;-70
2022/10/15 04:52:22;;;;;;;17.70;15.00;;;15.00;99.90;;;;;;5079351;28;20493;-69
2022/10/15 04:54:48;;;;;;;17.92;14.40;;;15.00;99.90;;;;;;5081158;28;20024;-69
2022/10/15 04:57:13;;;;;;;19.08;13.13;;;15.00;99.90;;;;;;5077812;28;20040;-70
2022/10/15 04:59:39;;;;;;;17.40;14.13;;;15.00;99.90;;;;;;5079219;28;20024;-70
2022/10/15 05:02:05;;;;;;;18.83;14.10;;;15.10;99.90;;;;;;5078780;28;20024;-70
2022/10/15 05:04:30;;;;;;;17.63;13.43;;;15.10;99.90;;;;;;5084870;28;20032;-70
2022/10/15 05:06:56;;;;;;;16.92;13.38;;;15.10;99.90;;;;;;5087402;28;20050;-69
2022/10/15 05:09:21;;;;;;;18.27;14.10;;;15.10;99.90;;;;;;5088009;28;20065;-69
2022/10/15 05:11:47;;;;;;;18.70;14.30;;;15.10;99.90;;;;;;5079568;28;20029;-69
2022/10/15 05:14:12;;;;;;;18.85;14.82;;;15.10;99.90;;;;;;5069645;28;20024;-69
2022/10/15 05:16:38;;;;;;;17.00;13.77;;;15.10;99.90;;;;;;5074192;28;20032;-70
2022/10/15 05:19:06;;;;;;;15.48;13.02;;;15.10;99.90;;;;;;5088317;28;20025;-70
2022/10/15 05:21:33;;;;;;;18.15;13.32;;;15.10;99.90;;;;;;5079195;28;20062;-70
2022/10/15 05:23:59;;;;;;;18.55;13.75;;;15.20;99.90;;;;;;5085779;28;20029;-70
2022/10/15 05:26:27;;;;;;;17.15;13.02;;;15.10;99.90;;;;;;5084951;28;20043;-71
2022/10/15 05:28:56;;;;;;;18.17;13.50;;;15.20;99.90;;;;;;5084811;28;20111;-70
2022/10/15 05:31:24;;;;;;;18.98;13.60;;;15.20;99.90;;;;;;5072094;28;20119;-71
2022/10/15 05:33:51;;;;;;;15.27;12.02;;;15.20;99.90;;;;;;5088200;28;20039;-71
2022/10/15 05:36:19;;;;;;;15.35;12.30;;;15.20;99.90;;;;;;5072058;28;20125;-70
2022/10/15 05:38:47;;;;;;;14.38;12.68;;;15.20;99.90;;;;;;5086396;28;20031;-70
2022/10/15 05:41:13;;;;;;;15.50;12.65;;;15.30;99.90;;;;;;5080350;28;20498;-71
2022/10/15 05:43:39;;;;;;;19.25;12.90;;;15.30;99.90;;;;;;5086574;28;20032;-70
2022/10/15 05:46:05;;;;;;;16.30;12.15;;;15.30;99.90;;;;;;5075228;28;20027;-70
2022/10/15 05:48:31;;;;;;;14.75;12.25;;;15.30;99.90;;;;;;5083185;28;20066;-71
2022/10/15 05:51:06;;;;;;;15.90;12.63;;;15.30;99.90;;;;;;5070271;28;20028;-70
2022/10/15 05:53:32;;;;;;;14.25;12.75;;;15.30;99.90;;;;;;5082805;28;20031;-71
2022/10/15 05:55:58;;;;;;;15.20;12.23;;;15.30;99.90;;;;;;5070565;28;20040;-71
2022/10/15 05:58:25;;;;;;;14.52;11.43;;;15.40;99.90;;;;;;5081395;28;20413;-71
2022/10/15 06:00:57;;;;;;;14.40;12.13;;;15.40;99.90;;;;;;5067213;28;20028;-70
2022/10/15 06:03:24;;;;;;;14.30;11.30;;;15.40;99.90;;;;;;5088931;28;20031;-70
2022/10/15 06:05:50;;;;;;;14.43;11.18;;;15.40;99.90;;;;;;5077215;28;20020;-71
2022/10/15 06:08:16;;;;;;;15.10;11.35;;;15.40;99.90;;;;;;5073967;28;20036;-69
2022/10/15 06:10:42;;;;;;;14.60;11.65;;;15.50;99.90;;;;;;5082878;28;20048;-69
2022/10/15 06:13:08;;;;;;;16.20;11.38;;;15.40;99.90;;;;;;5075782;28;20490;-69
2022/10/15 06:15:33;;;;;;;14.70;11.98;;;15.50;99.90;;;;;;5071372;28;20487;-66
2022/10/15 06:17:59;;;;;;;14.48;11.20;;;15.50;99.90;;;;;;5083188;28;20024;-69
2022/10/15 06:20:27;;;;;;;15.20;11.95;;;15.50;99.90;;;;;;5076053;28;20111;-67
2022/10/15 06:22:57;;;;;;;15.57;12.00;;;15.60;99.90;;;;;;5080216;28;20356;-69
2022/10/15 06:25:22;;;;;;;19.00;12.68;;;15.50;99.90;;;;;;5073070;28;20484;-68
2022/10/15 06:27:48;;;;;;;16.77;12.02;;;15.50;99.90;;;;;;5073281;28;20028;-68
2022/10/15 06:30:13;;;;;;;16.13;12.48;;;15.60;99.90;;;;;;5068680;28;20039;-68
2022/10/15 06:32:45;;;;;;;15.60;12.07;;;15.60;99.90;;;;;;5081355;28;20050;-68
2022/10/15 06:35:10;;;;;;;13.13;10.85;;;15.60;99.90;;;;;;5072341;28;20597;-68
2022/10/15 06:37:36;;;;;;;14.27;11.18;;;15.70;99.90;;;;;;5081453;28;20024;-67
2022/10/15 06:40:02;;;;;;;13.60;11.02;;;15.60;99.90;;;;;;5073272;28;20036;-67
2022/10/15 06:42:27;;;;;;;13.35;11.45;;;15.70;99.90;;;;;;5087276;28;20038;-67
2022/10/15 06:44:53;;;;;;;14.52;12.05;;;15.70;99.90;;;;;;5072990;28;20405;-67
2022/10/15 06:47:18;;;;;;;15.50;11.73;;;15.70;99.90;;;;;;5069626;28;20096;-68
2022/10/15 06:49:44;;;;;;;13.35;11.57;;;15.70;99.90;;;;;;5086952;28;20050;-67
2022/10/15 06:52:10;;;;;;;13.05;11.27;;;15.80;99.90;;;;;;5083446;28;20413;-68
2022/10/15 06:54:36;;;;;;;15.68;11.82;;;15.80;99.90;;;;;;5075286;28;20051;-68
2022/10/15 06:57:01;;;;;;;14.32;11.77;;;15.80;99.90;;;;;;5086172;28;20036;-68
2022/10/15 06:59:27;;;;;;;15.85;11.73;;;15.80;99.90;;;;;;5071698;28;20158;-67
2022/10/15 07:01:53;;;;;;;12.57;10.25;;;15.80;99.90;;;;;;5074650;28;20043;-67
2022/10/15 07:04:18;;;;;;;15.57;11.60;;;15.80;99.90;;;;;;5073035;28;20025;-68
2022/10/15 07:06:44;;;;;;;14.70;11.40;;;15.90;99.90;;;;;;5070012;28;20033;-68
2022/10/15 07:09:10;;;;;;;17.83;11.32;;;15.80;99.90;;;;;;5070471;28;20384;-68
2022/10/15 07:11:35;;;;;;;14.52;11.40;;;15.80;99.90;;;;;;5070095;28;20038;-68
2022/10/15 07:14:01;;;;;;;17.13;12.35;;;15.80;99.90;;;;;;5068256;28;20028;-67
2022/10/15 07:16:26;;;;;;;13.98;11.23;;;15.80;99.90;;;;;;5068838;28;20033;-68
2022/10/15 07:18:52;;;;;;;15.82;12.48;;;15.90;99.90;;;;;;5073196;28;20032;-68
2022/10/15 07:21:17;;;;;;;16.92;11.73;;;15.90;99.90;;;;;;5073400;28;20502;-67
2022/10/15 07:23:43;;;;;;;14.57;10.88;;;16.00;99.90;;;;;;5077852;28;20023;-69
2022/10/15 07:26:09;;;;;;;14.57;11.07;;;16.00;99.90;;;;;;5084612;28;20386;-69
2022/10/15 07:28:34;;;;;;;13.70;10.77;;;16.10;99.90;;;;;;5081464;28;20028;-69
2022/10/15 07:31:02;;;;;;;16.13;11.32;;;16.10;99.90;;;;;;5073904;28;20028;-67
2022/10/15 07:33:28;;;;;;;12.10;10.15;;;16.20;99.90;;;;;;5084900;28;20499;-69
2022/10/15 07:35:55;;;;;;;13.70;11.48;;;16.20;99.90;;;;;;5073181;28;20043;-68
2022/10/15 07:38:22;;;;;;;15.32;11.38;;;16.30;99.90;;;;;;5083854;28;20028;-68
2022/10/15 07:40:47;;;;;;;15.60;10.05;;;16.30;99.90;;;;;;5069026;28;20403;-69
2022/10/15 07:43:14;;;;;;;13.20;10.75;;;16.40;99.90;;;;;;5072227;28;20024;-68
2022/10/15 07:45:40;;;;;;;13.80;10.63;;;16.50;99.90;;;;;;5077571;28;20024;-68
2022/10/15 07:48:05;;;;;;;12.90;9.27;;;16.50;99.90;;;;;;5082453;28;20082;-67
2022/10/15 07:50:31;;;;;;;13.18;9.68;;;16.50;99.90;;;;;;5072643;28;20032;-69
2022/10/15 07:52:57;;;;;;;12.82;9.68;;;16.60;99.90;;;;;;5074312;28;20371;-68
2022/10/15 07:55:23;;;;;;;12.32;9.45;;;16.60;99.90;;;;;;5060361;28;20065;-68
2022/10/15 07:57:48;;;;;;;12.45;9.52;;;16.60;99.90;;;;;;5074152;28;20166;-68
2022/10/15 08:00:14;;;;;;;13.70;9.73;;;16.60;99.90;;;;;;5076267;28;20029;-68
2022/10/15 08:02:40;;;;;;;10.43;8.57;;;16.70;99.90;;;;;;5074172;28;20036;-69
2022/10/15 08:05:06;;;;;;;12.55;9.13;;;16.70;99.90;;;;;;5081137;28;20024;-70
2022/10/15 08:07:31;;;;;;;11.68;9.25;;;16.70;99.90;;;;;;5075262;28;20032;-70
2022/10/15 08:09:58;;;;;;;11.30;9.73;;;16.70;99.90;;;;;;5081287;28;20028;-69
2022/10/15 08:12:24;;;;;;;12.98;10.02;;;16.80;99.90;;;;;;5072169;28;20016;-69
2022/10/15 08:14:50;;;;;;;16.55;10.27;;;16.80;99.90;;;;;;5074382;28;20031;-69
2022/10/15 08:17:15;;;;;;;11.85;9.20;;;16.80;99.90;;;;;;5070019;28;20045;-68
2022/10/15 08:19:41;;;;;;;13.45;9.65;;;16.80;99.90;;;;;;5077971;28;20437;-68
2022/10/15 08:22:06;;;;;;;11.35;9.00;;;16.80;99.90;;;;;;5085560;28;20032;-68
2022/10/15 08:24:32;;;;;;;10.48;8.90;;;16.90;99.90;;;;;;5080376;28;20050;-68
2022/10/15 08:26:58;;;;;;;13.10;9.32;;;16.90;99.90;;;;;;5087404;28;20036;-68
2022/10/15 08:29:24;;;;;;;12.50;8.88;;;17.00;99.90;;;;;;5070843;28;20086;-68
2022/10/15 08:31:50;;;;;;;12.05;9.10;;;17.00;99.90;;;;;;5079067;28;20047;-69
2022/10/15 08:34:16;;;;;;;11.98;9.30;;;17.10;99.90;;;;;;5077247;28;20039;-69
2022/10/15 08:36:42;;;;;;;12.23;9.63;;;17.20;99.90;;;;;;5074647;28;20032;-69
2022/10/15 08:39:08;;;;;;;11.02;8.82;;;17.30;99.90;;;;;;5076596;28;20050;-68
2022/10/15 08:41:37;;;;;;;10.30;8.32;;;17.40;99.90;;;;;;5082412;28;20029;-68
2022/10/15 08:44:03;;;;;;;11.02;8.73;;;17.40;99.90;;;;;;5089767;28;20055;-69
2022/10/15 08:47:05;;;;;;;9.85;7.22;;;17.50;99.90;;;;;;5072796;28;20033;-69
2022/10/15 08:49:44;;;;;;;9.02;7.82;;;17.50;99.90;;;;;;5051951;28;20248;-69
2022/10/15 08:52:43;;;;;;;10.70;7.70;;;17.60;99.90;;;;;;5070919;28;20119;-68
2022/10/15 08:55:16;;;;;;;9.20;7.82;;;17.60;99.90;;;;;;5050067;28;20048;-69
2022/10/15 08:57:51;;;;;;;11.15;7.88;;;17.70;99.90;;;;;;5087145;28;20040;-69
2022/10/15 09:00:24;;;;;;;11.10;7.50;;;17.80;99.90;;;;;;5074496;28;20114;-69
2022/10/15 09:03:09;;;;;;;10.90;7.65;;;17.80;99.90;;;;;;5071882;28;20024;-68
2022/10/15 09:05:47;;;;;;;8.75;7.43;;;17.90;99.90;;;;;;5074781;28;20028;-68
2022/10/15 09:08:28;;;;;;;9.63;7.78;;;17.90;99.90;;;;;;5091144;28;20024;-69
2022/10/15 09:11:00;;;;;;;8.88;7.32;;;18.00;99.90;;;;;;5075968;28;20099;-68
2022/10/15 09:13:41;;;;;;;10.73;8.27;;;18.00;99.90;;;;;;5075506;28;20111;-68
2022/10/15 09:16:17;;;;;;;10.95;7.60;;;18.10;99.90;;;;;;5068869;28;20461;-69
2022/10/15 09:18:46;;;;;;;9.80;7.28;;;18.10;99.90;;;;;;5070442;28;20029;-69
2022/10/15 09:21:14;;;;;;;10.02;7.80;;;18.20;99.90;;;;;;5063039;28;20372;-69
2022/10/15 09:23:42;;;;;;;9.98;7.40;;;18.30;99.90;;;;;;5083551;28;20036;-69
2022/10/15 09:26:11;;;;;;;9.60;7.10;;;18.30;99.90;;;;;;5084719;28;20427;-69
2022/10/15 09:28:47;;;;;;;8.20;7.30;;;18.40;99.90;;;;;;5087489;28;20020;-68
2022/10/15 09:31:18;;;;;;;9.73;8.10;;;18.50;99.90;;;;;;5076872;28;20372;-67
2022/10/15 09:34:17;;;;;;;10.35;7.70;;;18.50;99.90;;;;;;5075378;28;20055;-68
2022/10/15 09:36:54;;;;;;;11.45;7.95;;;18.60;99.90;;;;;;5057949;28;20454;-69
2022/10/15 09:39:54;;;;;;;10.32;8.23;;;18.70;99.90;;;;;;5067971;28;20476;-69
2022/10/15 09:42:26;;;;;;;8.57;6.40;;;18.80;99.90;;;;;;5083640;28;20537;-69
2022/10/15 09:44:55;;;;;;;9.40;7.70;;;18.90;99.90;;;;;;5074226;28;20031;-69
2022/10/15 09:47:27;;;;;;;9.32;6.90;;;19.00;99.90;;;;;;5072332;28;20543;-69
2022/10/15 09:49:53;;;;;;;10.38;7.50;;;19.10;99.90;;;;;;5074345;28;20135;-68
2022/10/15 09:52:41;;;;;;;7.85;6.82;;;19.20;99.90;;;;;;5073476;28;20527;-69
2022/10/15 09:55:25;;;;;;;8.60;7.10;;;19.30;99.90;;;;;;5075445;28;20088;-69
2022/10/15 09:57:55;;;;;;;7.93;6.35;;;19.30;99.90;;;;;;5077085;28;20503;-69
2022/10/15 10:00:21;;;;;;;9.65;6.65;;;19.40;99.90;;;;;;5077977;28;20032;-69
2022/10/15 10:03:12;;;;;;;8.35;5.97;;;19.50;99.90;;;;;;5084716;28;20020;-68
2022/10/15 10:05:38;;;;;;;7.20;6.38;;;19.50;99.90;;;;;;5071460;28;20517;-69
2022/10/15 10:08:29;;;;;;;8.02;5.68;;;19.50;99.90;;;;;;5087722;28;20485;-67
2022/10/15 10:11:01;;;;;;;8.15;6.10;;;19.50;99.90;;;;;;5049238;28;20043;-69
2022/10/15 10:13:46;;;;;;;6.88;5.57;;;19.50;99.90;;;;;;5070598;28;20052;-70
2022/10/15 10:16:13;;;;;;;;;;;19.50;99.90;;;;;;5069067;28;20040;-70
2022/10/15 10:18:41;;;;;;;7.45;5.28;;;19.50;99.90;;;;;;5066713;28;19962;-71
2022/10/15 10:21:29;;;;;;;6.13;5.18;;;19.50;99.90;;;;;;5068516;28;20042;-70
2022/10/15 10:23:56;;;;;;;5.72;4.82;;;19.50;99.90;;;;;;5066313;28;20024;-71
2022/10/15 10:26:25;;;;;;;6.68;5.20;;;19.60;99.90;;;;;;5070083;28;20036;-70
2022/10/15 10:28:53;;;;;;;7.47;5.10;;;19.60;99.90;;;;;;5074298;28;20391;-70
2022/10/15 10:31:29;;;;;;;6.22;5.50;;;19.70;99.90;;;;;;5079526;28;20039;-70
2022/10/15 10:33:59;;;;;;;6.20;4.63;;;19.70;99.90;;;;;;5076076;28;20048;-70
2022/10/15 10:36:32;;;;;;;6.47;4.57;;;19.80;99.90;;;;;;5073996;28;20036;-70
2022/10/15 10:39:09;;;;;;;6.38;4.30;;;19.90;99.90;;;;;;5076082;28;20103;-70
2022/10/15 10:41:53;;;;;;;6.78;4.93;;;19.90;99.90;;;;;;5083071;28;20028;-70
2022/10/15 10:44:20;;;;;;;5.85;4.53;;;19.90;99.90;;;;;;5075951;28;20042;-70
2022/10/15 10:47:09;;;;;;;5.70;4.85;;;20.00;99.90;;;;;;5078450;28;20032;-70
2022/10/15 10:49:37;;;;;;;6.25;4.60;;;20.00;99.90;;;;;;5079038;28;20053;-70
2022/10/15 10:52:05;;;;;;;6.05;4.60;;;20.10;99.80;;;;;;5078117;28;20486;-70
2022/10/15 10:54:31;;;;;;;5.13;4.32;;;20.10;99.90;;;;;;5074572;28;20071;-70
2022/10/15 10:56:58;;;;;;;6.00;4.63;;;20.20;99.60;;;;;;5072646;28;20066;-70
2022/10/15 10:59:35;;;;;;;6.82;4.75;;;20.30;99.40;;;;;;5082037;28;20059;-70
2022/10/15 11:02:03;;;;;;;6.32;4.90;;;20.30;99.50;;;;;;5071592;28;20054;-70
2022/10/15 11:04:34;;;;;;;7.97;4.53;;;20.30;99.60;;;;;;5073731;28;20025;-70
2022/10/15 11:07:03;;;;;;;6.78;5.35;;;20.40;99.30;;;;;;5066086;28;20070;-70
2022/10/15 11:09:43;;;;;;;5.10;3.92;;;20.40;99.20;;;;;;5074855;28;20020;-69
2022/10/15 11:12:30;;;;;;;6.28;4.57;;;20.40;99.10;;;;;;5071692;28;20039;-70
2022/10/15 11:15:17;;;;;;;6.50;4.47;;;20.50;98.90;;;;;;5074611;28;20032;-70
2022/10/15 11:18:05;;;;;;;6.32;4.35;;;20.50;98.80;;;;;;5073900;28;20042;-70
2022/10/15 11:21:03;;;;;;;5.63;4.57;;;20.50;98.80;;;;;;5066296;28;20047;-70
2022/10/15 11:23:47;;;;;;;7.90;4.68;;;20.60;98.60;;;;;;5076334;28;20494;-69
2022/10/15 11:26:36;;;;;;;6.50;4.57;;;20.60;98.60;;;;;;5073692;28;20565;-69
2022/10/15 11:29:19;;;;;;;5.32;4.40;;;20.70;98.80;;;;;;5070704;28;20044;-70
2022/10/15 11:32:01;;;;;;;6.45;5.18;;;20.70;98.60;;;;;;5075070;28;20036;-69
2022/10/15 11:34:57;;;;;;;5.68;4.05;;;20.70;98.60;;;;;;5072891;28;20040;-70
2022/10/15 11:37:40;;;;;;;5.68;4.45;;;20.70;98.60;;;;;;5074706;28;20037;-70
2022/10/15 11:40:18;;;;;;;5.97;4.25;;;20.60;98.50;;;;;;5073753;28;20540;-73
2022/10/15 11:42:57;;;;;;;4.85;4.32;;;20.60;98.30;;;;;;5078311;28;20025;-72
2022/10/15 11:45:29;;;;;;;5.25;3.97;;;20.60;98.30;;;;;;5076105;28;20513;-70
2022/10/15 11:48:02;;;;;;;5.35;4.03;;;20.60;98.40;;;;;;5075907;28;20044;-69
2022/10/15 11:50:39;;;;;;;5.07;4.07;;;20.50;98.40;;;;;;5081842;28;20031;-69
2022/10/15 11:53:08;;;;;;;6.32;4.20;;;20.50;98.30;;;;;;5067294;28;20040;-69
2022/10/15 11:55:41;;;;;;;6.20;3.90;;;20.50;98.30;;;;;;5072371;28;20507;-69
2022/10/15 11:58:27;;;;;;;5.35;4.20;;;20.60;98.20;;;;;;5085313;28;20038;-67
2022/10/15 12:00:58;;;;;;;6.07;4.72;;;20.60;98.20;;;;;;5064333;28;20056;-69
2022/10/15 12:03:29;;;;;;;6.03;4.47;;;20.60;98.20;;;;;;5072304;28;20086;-68
2022/10/15 12:05:59;;;;;;;4.43;3.72;;;20.60;98.10;;;;;;5073009;28;20107;-71
2022/10/15 12:08:31;;;;;;;8.20;4.35;;;20.60;98.10;;;;;;5072770;28;20046;-71
2022/10/15 12:11:17;;;;;;;5.25;3.90;;;20.60;98.10;;;;;;5073560;28;20436;-70
2022/10/15 12:13:52;;;;;;;4.47;4.05;;;20.60;98.10;;;;;;5071513;28;20028;-69
2022/10/15 12:16:35;;;;;;;5.38;4.18;;;20.70;98.00;;;;;;5073371;28;20102;-68
2022/10/15 12:19:04;;;;;;;4.75;3.67;;;20.70;97.90;;;;;;5071292;28;20038;-71
2022/10/15 12:21:37;;;;;;;5.93;3.78;;;20.70;97.90;;;;;;5075968;28;20028;-71
2022/10/15 12:24:09;;;;;;;7.82;4.40;;;20.70;97.80;;;;;;5070986;28;20034;-70
2022/10/15 12:26:35;;;;;;;4.80;3.50;;;20.70;97.80;;;;;;5073707;28;20033;-68
2022/10/15 12:29:04;;;;;;;5.05;3.92;;;20.70;97.80;;;;;;5070182;28;20588;-68
2022/10/15 12:31:49;;;;;;;4.30;3.25;;;20.70;97.90;;;;;;5071599;28;20029;-69
2022/10/15 12:34:30;;;;;;;5.05;3.30;;;20.70;97.80;;;;;;5074684;28;20156;-71
2022/10/15 12:37:05;;;;;;;6.63;4.03;;;20.70;97.60;;;;;;5072013;28;20044;-69
2022/10/15 12:39:30;;;;;;;5.07;3.60;;;20.60;97.60;;;;;;5073137;28;20065;-70
2022/10/15 12:41:57;;;;;;;5.30;3.67;;;20.60;97.60;;;;;;5070689;28;20024;-69
2022/10/15 12:44:29;;;;;;;4.30;3.40;;;20.50;97.40;;;;;;5083565;28;20024;-69
2022/10/15 12:46:56;;;;;;;4.00;3.17;;;20.50;97.40;;;;;;5070992;28;20028;-69
2022/10/15 12:49:29;;;;;;;7.90;4.40;;;20.50;97.40;;;;;;5086745;28;20533;-70
2022/10/15 12:52:00;;;;;;;7.47;4.00;;;20.40;97.50;;;;;;5073158;28;20036;-69